createdAt,value
2018-12-11T00:00:30.551Z,49.61
2018-12-11T00:01:30.700Z,49.59
2018-12-11T00:02:30.984Z,49.63
2018-12-11T00:03:30.835Z,49.58
2018-12-11T00:04:30.503Z,49.6
2018-12-11T00:05:30.998Z,49.6
2018-12-11T00:06:30.570Z,49.61
2018-12-11T00:07:30.692Z,49.61
2018-12-11T00:08:31.232Z,49.62
2018-12-11T00:09:30.401Z,49.61
2018-12-11T00:10:30.705Z,49.6
2018-12-11T00:11:34.312Z,49.67
2018-12-11T00:12:30.802Z,49.64
2018-12-11T00:13:30.521Z,49.61
2018-12-11T00:14:30.824Z,49.66
2018-12-11T00:15:30.534Z,49.63
2018-12-11T00:16:30.470Z,49.68
2018-12-11T00:17:30.444Z,49.62
2018-12-11T00:18:30.736Z,49.57
2018-12-11T00:19:30.400Z,49.63
2018-12-11T00:20:30.823Z,49.62
2018-12-11T00:21:30.468Z,49.64
2018-12-11T00:22:30.509Z,49.64
2018-12-11T00:23:30.591Z,49.63
2018-12-11T00:24:30.584Z,49.63
2018-12-11T00:25:30.852Z,49.58
2018-12-11T00:26:30.400Z,49.65
2018-12-11T00:27:30.707Z,49.59
2018-12-11T00:28:30.357Z,49.61
2018-12-11T00:29:30.750Z,49.63
2018-12-11T00:30:30.974Z,49.64
2018-12-11T00:31:30.883Z,49.67
2018-12-11T00:32:30.641Z,49.64
2018-12-11T00:33:30.356Z,49.6
2018-12-11T00:34:30.879Z,49.61
2018-12-11T00:35:30.815Z,49.63
2018-12-11T00:36:30.828Z,49.64
2018-12-11T00:37:30.676Z,49.68
2018-12-11T00:38:30.634Z,49.69
2018-12-11T00:39:30.888Z,49.63
2018-12-11T00:40:30.820Z,49.61
2018-12-11T00:41:30.934Z,49.63
2018-12-11T00:42:30.502Z,49.66
2018-12-11T00:43:30.859Z,49.67
2018-12-11T00:44:30.388Z,49.67
2018-12-11T00:45:30.737Z,49.63
2018-12-11T00:46:31.299Z,49.65
2018-12-11T00:47:30.509Z,49.65
2018-12-11T00:48:30.676Z,49.62
2018-12-11T00:49:30.379Z,49.62
2018-12-11T00:50:31.012Z,49.68
2018-12-11T00:51:30.382Z,49.65
2018-12-11T00:52:30.492Z,49.66
2018-12-11T00:53:30.510Z,49.65
2018-12-11T00:54:30.926Z,49.62
2018-12-11T00:55:30.428Z,49.63
2018-12-11T00:56:30.471Z,49.66
2018-12-11T00:57:30.487Z,49.68
2018-12-11T00:58:31.330Z,49.71
2018-12-11T00:59:30.939Z,49.67
2018-12-11T01:00:30.580Z,49.7
2018-12-11T01:01:30.919Z,49.69
2018-12-11T01:02:30.881Z,49.7
2018-12-11T01:03:30.802Z,49.7
2018-12-11T01:04:30.301Z,49.71
2018-12-11T01:05:30.989Z,49.68
2018-12-11T01:06:30.838Z,49.7
2018-12-11T01:07:30.581Z,49.65
2018-12-11T01:08:30.740Z,49.66
2018-12-11T01:09:30.708Z,49.67
2018-12-11T01:10:30.400Z,49.68
2018-12-11T01:11:30.896Z,49.65
2018-12-11T01:12:30.379Z,49.69
2018-12-11T01:13:30.493Z,49.65
2018-12-11T01:14:30.557Z,49.71
2018-12-11T01:15:30.400Z,49.74
2018-12-11T01:16:30.524Z,49.67
2018-12-11T01:17:30.381Z,49.69
2018-12-11T01:18:30.745Z,49.63
2018-12-11T01:19:30.380Z,49.71
2018-12-11T01:20:30.409Z,49.68
2018-12-11T01:21:30.597Z,49.69
2018-12-11T01:22:30.380Z,49.72
2018-12-11T01:23:30.829Z,49.71
2018-12-11T01:24:30.446Z,49.67
2018-12-11T01:25:30.914Z,49.63
2018-12-11T01:26:30.472Z,49.63
2018-12-11T01:27:30.428Z,49.71
2018-12-11T01:28:30.546Z,49.69
2018-12-11T01:29:30.430Z,49.66
2018-12-11T01:30:30.461Z,49.69
2018-12-11T01:31:30.399Z,49.67
2018-12-11T01:32:30.450Z,49.68
2018-12-11T01:33:30.312Z,49.68
2018-12-11T01:34:30.378Z,49.73
2018-12-11T01:35:30.844Z,49.71
2018-12-11T01:36:30.379Z,49.74
2018-12-11T01:37:30.572Z,49.75
2018-12-11T01:38:31.133Z,49.7
2018-12-11T01:39:30.664Z,49.69
2018-12-11T01:40:30.882Z,49.68
2018-12-11T01:41:30.649Z,49.65
2018-12-11T01:42:30.830Z,49.7
2018-12-11T01:43:30.839Z,49.68
2018-12-11T01:44:31.169Z,49.72
2018-12-11T01:45:30.704Z,49.64
2018-12-11T01:46:30.619Z,49.67
2018-12-11T01:47:31.079Z,49.65
2018-12-11T01:48:30.436Z,49.67
2018-12-11T01:49:31.123Z,49.61
2018-12-11T01:50:30.451Z,49.64
2018-12-11T01:51:30.842Z,49.67
2018-12-11T01:52:30.591Z,49.68
2018-12-11T01:53:30.395Z,49.68
2018-12-11T01:54:31.049Z,49.64
2018-12-11T01:55:30.658Z,49.63
2018-12-11T01:56:30.474Z,49.64
2018-12-11T01:57:30.383Z,49.63
2018-12-11T01:58:30.446Z,49.61
2018-12-11T01:59:30.642Z,49.67
2018-12-11T02:00:30.364Z,49.64
2018-12-11T02:01:30.552Z,49.63
2018-12-11T02:02:30.439Z,49.67
2018-12-11T02:03:32.344Z,49.61
2018-12-11T02:04:31.663Z,49.64
2018-12-11T02:05:30.936Z,49.63
2018-12-11T02:06:30.549Z,49.63
2018-12-11T02:07:30.510Z,49.61
2018-12-11T02:08:30.807Z,49.62
2018-12-11T02:09:30.326Z,49.61
2018-12-11T02:10:30.516Z,49.63
2018-12-11T02:11:30.416Z,49.58
2018-12-11T02:12:30.510Z,49.65
2018-12-11T02:13:30.522Z,49.68
2018-12-11T02:14:30.486Z,49.64
2018-12-11T02:15:30.797Z,49.63
2018-12-11T02:16:30.386Z,49.63
2018-12-11T02:17:30.526Z,49.64
2018-12-11T02:18:30.378Z,49.61
2018-12-11T02:19:30.863Z,49.64
2018-12-11T02:20:30.624Z,49.59
2018-12-11T02:21:30.510Z,49.61
2018-12-11T02:22:30.209Z,49.6
2018-12-11T02:23:30.338Z,49.63
2018-12-11T02:24:30.552Z,49.6
2018-12-11T02:25:30.424Z,49.67
2018-12-11T02:26:31.021Z,49.63
2018-12-11T02:27:30.567Z,49.66
2018-12-11T02:28:30.531Z,49.63
2018-12-11T02:29:30.478Z,49.61
2018-12-11T02:30:30.440Z,49.66
2018-12-11T02:31:30.786Z,49.63
2018-12-11T02:32:30.479Z,49.64
2018-12-11T02:33:30.331Z,49.66
2018-12-11T02:34:30.848Z,49.64
2018-12-11T02:35:30.425Z,49.63
2018-12-11T02:36:30.508Z,49.63
2018-12-11T02:37:30.847Z,49.66
2018-12-11T02:38:30.650Z,49.64
2018-12-11T02:39:30.455Z,49.67
2018-12-11T02:40:30.430Z,49.66
2018-12-11T02:41:30.797Z,49.62
2018-12-11T02:42:30.637Z,49.61
2018-12-11T02:43:30.920Z,49.63
2018-12-11T02:44:30.580Z,49.62
2018-12-11T02:45:30.707Z,49.61
2018-12-11T02:46:30.543Z,49.6
2018-12-11T02:47:30.990Z,49.61
2018-12-11T02:48:31.131Z,49.59
2018-12-11T02:49:30.917Z,49.57
2018-12-11T02:50:30.880Z,49.55
2018-12-11T02:51:30.582Z,49.57
2018-12-11T02:52:30.456Z,49.64
2018-12-11T02:53:30.331Z,49.64
2018-12-11T02:54:30.540Z,49.62
2018-12-11T02:55:30.605Z,49.63
2018-12-11T02:56:30.312Z,49.64
2018-12-11T02:57:30.454Z,49.58
2018-12-11T02:58:30.256Z,49.58
2018-12-11T02:59:30.580Z,49.64
2018-12-11T03:00:30.983Z,49.57
2018-12-11T03:01:30.384Z,49.61
2018-12-11T03:02:30.379Z,49.59
2018-12-11T03:03:30.587Z,49.63
2018-12-11T03:04:30.397Z,49.64
2018-12-11T03:05:30.308Z,49.64
2018-12-11T03:06:30.742Z,49.64
2018-12-11T03:07:30.499Z,49.6
2018-12-11T03:08:30.305Z,49.62
2018-12-11T03:09:31.198Z,49.6
2018-12-11T03:10:30.426Z,49.62
2018-12-11T03:11:30.386Z,49.63
2018-12-11T03:12:30.435Z,49.61
2018-12-11T03:13:30.302Z,49.65
2018-12-11T03:14:30.471Z,49.62
2018-12-11T03:15:30.460Z,49.67
2018-12-11T03:16:30.405Z,49.65
2018-12-11T03:17:30.772Z,49.65
2018-12-11T03:18:30.406Z,49.58
2018-12-11T03:19:30.557Z,49.6
2018-12-11T03:20:30.538Z,49.57
2018-12-11T03:21:30.754Z,49.58
2018-12-11T03:22:30.480Z,49.6
2018-12-11T03:23:30.745Z,49.61
2018-12-11T03:24:31.738Z,49.59
2018-12-11T03:25:30.689Z,49.63
2018-12-11T03:26:30.581Z,49.6
2018-12-11T03:27:30.496Z,49.63
2018-12-11T03:28:30.579Z,49.64
2018-12-11T03:29:30.743Z,49.65
2018-12-11T03:30:30.944Z,49.65
2018-12-11T03:31:30.898Z,49.65
2018-12-11T03:32:30.527Z,49.66
2018-12-11T03:33:30.467Z,49.62
2018-12-11T03:34:30.473Z,49.6
2018-12-11T03:35:31.045Z,49.61
2018-12-11T03:36:30.684Z,49.59
2018-12-11T03:37:30.301Z,49.62
2018-12-11T03:38:30.395Z,49.59
2018-12-11T03:39:30.455Z,49.61
2018-12-11T03:40:30.593Z,49.59
2018-12-11T03:41:30.552Z,49.6
2018-12-11T03:42:30.464Z,49.65
2018-12-11T03:43:30.567Z,49.61
2018-12-11T03:44:30.862Z,49.63
2018-12-11T03:45:30.702Z,49.62
2018-12-11T03:46:30.707Z,49.63
2018-12-11T03:47:30.444Z,49.59
2018-12-11T03:48:30.231Z,49.55
2018-12-11T03:49:30.511Z,49.62
2018-12-11T03:50:30.752Z,49.63
2018-12-11T03:51:30.438Z,49.6
2018-12-11T03:52:30.478Z,49.63
2018-12-11T03:53:30.772Z,49.67
2018-12-11T03:54:30.478Z,49.62
2018-12-11T03:55:30.769Z,49.68
2018-12-11T03:56:30.487Z,49.64
2018-12-11T03:57:30.295Z,49.63
2018-12-11T03:58:30.581Z,49.63
2018-12-11T03:59:30.645Z,49.57
2018-12-11T04:00:30.823Z,49.61
2018-12-11T04:01:30.863Z,49.65
2018-12-11T04:02:30.582Z,49.64
2018-12-11T04:03:30.526Z,49.58
2018-12-11T04:04:30.380Z,49.63
2018-12-11T04:05:30.780Z,49.63
2018-12-11T04:06:30.743Z,49.58
2018-12-11T04:07:30.534Z,49.62
2018-12-11T04:08:30.302Z,49.61
2018-12-11T04:09:30.420Z,49.64
2018-12-11T04:10:30.572Z,49.59
2018-12-11T04:11:30.902Z,49.58
2018-12-11T04:12:30.219Z,49.59
2018-12-11T04:13:30.872Z,49.62
2018-12-11T04:14:30.504Z,49.58
2018-12-11T04:15:30.573Z,49.63
2018-12-11T04:16:30.450Z,49.58
2018-12-11T04:17:31.195Z,49.58
2018-12-11T04:18:30.464Z,49.66
2018-12-11T04:19:30.346Z,49.62
2018-12-11T04:20:30.759Z,49.63
2018-12-11T04:21:30.493Z,49.63
2018-12-11T04:22:30.336Z,49.64
2018-12-11T04:23:30.519Z,49.6
2018-12-11T04:24:30.688Z,49.63
2018-12-11T04:25:30.442Z,49.59
2018-12-11T04:26:30.541Z,49.64
2018-12-11T04:27:30.328Z,49.63
2018-12-11T04:28:30.485Z,49.63
2018-12-11T04:29:30.574Z,49.6
2018-12-11T04:30:30.802Z,49.58
2018-12-11T04:31:30.578Z,49.63
2018-12-11T04:32:30.542Z,49.64
2018-12-11T04:33:30.583Z,49.66
2018-12-11T04:34:30.390Z,49.61
2018-12-11T04:35:30.208Z,49.56
2018-12-11T04:36:30.698Z,49.55
2018-12-11T04:37:30.596Z,49.56
2018-12-11T04:38:30.528Z,49.64
2018-12-11T04:39:34.436Z,49.65
2018-12-11T04:40:30.525Z,49.66
2018-12-11T04:41:30.436Z,49.63
2018-12-11T04:42:30.395Z,49.71
2018-12-11T04:43:30.479Z,49.59
2018-12-11T04:44:30.708Z,49.66
2018-12-11T04:45:30.415Z,49.61
2018-12-11T04:46:30.415Z,49.71
2018-12-11T04:47:30.482Z,49.68
2018-12-11T04:48:30.460Z,49.65
2018-12-11T04:49:30.379Z,49.74
2018-12-11T04:50:30.602Z,49.72
2018-12-11T04:51:30.459Z,49.72
2018-12-11T04:52:30.509Z,49.65
2018-12-11T04:53:30.147Z,49.72
2018-12-11T04:54:30.859Z,49.7
2018-12-11T04:55:30.294Z,49.65
2018-12-11T04:56:30.592Z,49.76
2018-12-11T04:57:30.574Z,49.73
2018-12-11T04:58:30.430Z,49.75
2018-12-11T04:59:30.430Z,49.75
2018-12-11T05:00:30.276Z,49.77
2018-12-11T05:01:30.660Z,49.73
2018-12-11T05:02:31.597Z,49.73
2018-12-11T05:03:30.747Z,49.71
2018-12-11T05:04:30.594Z,49.7
2018-12-11T05:05:30.377Z,49.67
2018-12-11T05:06:30.695Z,49.65
2018-12-11T05:07:30.308Z,49.62
2018-12-11T05:08:30.764Z,49.66
2018-12-11T05:09:30.481Z,49.64
2018-12-11T05:10:30.388Z,49.64
2018-12-11T05:11:30.314Z,49.61
2018-12-11T05:12:30.659Z,49.52
2018-12-11T05:13:30.562Z,49.56
2018-12-11T05:14:30.277Z,49.53
2018-12-11T05:15:30.446Z,49.54
2018-12-11T05:16:30.809Z,49.5
2018-12-11T05:17:30.831Z,49.5
2018-12-11T05:18:30.770Z,49.46
2018-12-11T05:19:30.804Z,49.45
2018-12-11T05:20:30.558Z,49.45
2018-12-11T05:21:30.309Z,49.41
2018-12-11T05:22:30.507Z,49.41
2018-12-11T05:23:30.905Z,49.4
2018-12-11T05:24:30.716Z,49.42
2018-12-11T05:25:30.437Z,49.43
2018-12-11T05:26:30.287Z,49.4
2018-12-11T05:27:30.512Z,49.39
2018-12-11T05:28:30.812Z,49.42
2018-12-11T05:29:30.443Z,49.4
2018-12-11T05:30:30.383Z,49.39
2018-12-11T05:31:30.352Z,49.38
2018-12-11T05:32:30.772Z,49.43
2018-12-11T05:33:30.522Z,49.39
2018-12-11T05:34:30.397Z,49.42
2018-12-11T05:35:30.361Z,49.39
2018-12-11T05:36:30.392Z,49.43
2018-12-11T05:37:30.328Z,49.42
2018-12-11T05:38:30.534Z,49.4
2018-12-11T05:39:30.213Z,49.4
2018-12-11T05:40:30.758Z,49.39
2018-12-11T05:41:30.398Z,49.43
2018-12-11T05:42:30.280Z,49.4
2018-12-11T05:43:30.446Z,49.42
2018-12-11T05:44:30.355Z,49.39
2018-12-11T05:45:30.728Z,49.42
2018-12-11T05:46:30.209Z,49.39
2018-12-11T05:47:30.644Z,49.43
2018-12-11T05:48:30.871Z,49.47
2018-12-11T05:49:30.280Z,49.45
2018-12-11T05:50:30.514Z,49.46
2018-12-11T05:51:30.404Z,49.43
2018-12-11T05:52:30.414Z,49.4
2018-12-11T05:53:30.311Z,49.4
2018-12-11T05:54:30.281Z,49.39
2018-12-11T05:55:31.586Z,49.42
2018-12-11T05:56:30.356Z,49.37
2018-12-11T05:57:30.732Z,49.39
2018-12-11T05:58:30.417Z,49.39
2018-12-11T05:59:30.547Z,49.39
2018-12-11T06:00:30.306Z,49.41
2018-12-11T06:01:30.480Z,49.43
2018-12-11T06:02:30.783Z,49.42
2018-12-11T06:03:30.254Z,49.46
2018-12-11T06:04:30.401Z,49.42
2018-12-11T06:05:30.642Z,49.45
2018-12-11T06:06:30.428Z,49.45
2018-12-11T06:07:30.525Z,49.45
2018-12-11T06:08:30.423Z,49.46
2018-12-11T06:09:30.341Z,49.39
2018-12-11T06:10:30.632Z,49.38
2018-12-11T06:11:30.484Z,49.4
2018-12-11T06:12:30.331Z,49.43
2018-12-11T06:13:30.163Z,49.39
2018-12-11T06:14:30.170Z,49.41
2018-12-11T06:15:30.414Z,49.33
2018-12-11T06:16:30.211Z,49.38
2018-12-11T06:17:30.287Z,49.33
2018-12-11T06:18:30.368Z,49.39
2018-12-11T06:19:30.286Z,49.33
2018-12-11T06:20:30.333Z,49.32
2018-12-11T06:21:30.294Z,49.38
2018-12-11T06:22:30.305Z,49.3
2018-12-11T06:23:30.260Z,49.33
2018-12-11T06:24:30.264Z,49.35
2018-12-11T06:25:30.495Z,49.33
2018-12-11T06:26:30.315Z,49.3
2018-12-11T06:27:30.552Z,49.26
2018-12-11T06:28:30.338Z,49.42
2018-12-11T06:29:30.337Z,49.35
2018-12-11T06:30:30.864Z,49.35
2018-12-11T06:31:30.241Z,49.31
2018-12-11T06:32:30.404Z,49.18
2018-12-11T06:33:31.032Z,49.12
2018-12-11T06:34:30.421Z,49.08
2018-12-11T06:35:30.196Z,49.16
2018-12-11T06:36:30.359Z,49.17
2018-12-11T06:37:30.286Z,49.26
2018-12-11T06:38:30.394Z,49.02
2018-12-11T06:39:30.681Z,49.09
2018-12-11T06:40:31.119Z,49.09
2018-12-11T06:41:30.352Z,49.1
2018-12-11T06:42:30.680Z,49.12
2018-12-11T06:43:30.571Z,49.11
2018-12-11T06:44:31.512Z,49.05
2018-12-11T06:45:30.332Z,49.1
2018-12-11T06:46:30.435Z,49.03
2018-12-11T06:47:30.504Z,49.04
2018-12-11T06:48:30.411Z,49.04
2018-12-11T06:49:30.234Z,49.04
2018-12-11T06:50:30.929Z,49.05
2018-12-11T06:51:30.257Z,49.01
2018-12-11T06:52:30.413Z,49.03
2018-12-11T06:53:30.621Z,49.03
2018-12-11T06:54:30.369Z,49.05
2018-12-11T06:55:31.049Z,49.05
2018-12-11T06:56:30.280Z,49.03
2018-12-11T06:57:30.812Z,49.04
2018-12-11T06:58:30.516Z,49.03
2018-12-11T06:59:30.674Z,49.03
2018-12-11T07:00:30.187Z,49.04
2018-12-11T07:01:30.305Z,49.09
2018-12-11T07:02:30.413Z,49.1
2018-12-11T07:03:30.188Z,49.12
2018-12-11T07:04:30.457Z,49.09
2018-12-11T07:05:30.536Z,49.06
2018-12-11T07:06:30.741Z,49.09
2018-12-11T07:07:30.203Z,49.11
2018-12-11T07:08:30.527Z,49.13
2018-12-11T07:09:30.766Z,49.13
2018-12-11T07:10:30.209Z,49.15
2018-12-11T07:11:30.446Z,49.13
2018-12-11T07:12:30.453Z,49.15
2018-12-11T07:13:30.475Z,49.15
2018-12-11T07:14:30.861Z,49.18
2018-12-11T07:15:30.395Z,49.14
2018-12-11T07:20:48.418Z,49.16
2018-12-11T07:21:48.192Z,49.14
2018-12-11T07:22:48.587Z,49.09
2018-12-11T07:23:48.493Z,49.11
2018-12-11T07:24:48.350Z,49.13
2018-12-11T07:25:48.317Z,49.14
2018-12-11T07:26:48.432Z,49.14
2018-12-11T07:27:48.270Z,49.16
2018-12-11T07:28:48.854Z,49.15
2018-12-11T07:29:48.058Z,49.2
2018-12-11T07:30:48.617Z,49.16
2018-12-11T07:31:48.273Z,49.15
2018-12-11T07:32:48.164Z,49.14
2018-12-11T07:33:51.456Z,49.19
2018-12-11T07:34:48.159Z,49.19
2018-12-11T07:35:48.356Z,49.23
2018-12-11T07:36:48.067Z,49.14
2018-12-11T07:37:48.252Z,49.2
2018-12-11T07:38:48.719Z,49.19
2018-12-11T07:39:48.264Z,49.22
2018-12-11T07:40:49.042Z,49.23
2018-12-11T07:41:48.415Z,49.27
2018-12-11T07:42:48.682Z,49.28
2018-12-11T07:43:48.214Z,49.28
2018-12-11T07:44:48.187Z,49.25
2018-12-11T07:45:48.387Z,49.17
2018-12-11T07:46:48.284Z,49.23
2018-12-11T07:47:48.667Z,49.25
2018-12-11T07:48:48.193Z,49.3
2018-12-11T07:49:48.303Z,49.31
2018-12-11T07:50:48.385Z,49.25
2018-12-11T07:51:48.298Z,49.27
2018-12-11T07:52:48.207Z,49.27
2018-12-11T07:53:48.263Z,49.28
2018-12-11T07:54:48.020Z,49.27
2018-12-11T07:55:48.195Z,49.23
2018-12-11T07:56:48.347Z,49.22
2018-12-11T07:57:48.614Z,49.25
2018-12-11T07:58:48.354Z,49.21
2018-12-11T07:59:48.100Z,49.27
2018-12-11T08:00:48.314Z,49.25
2018-12-11T08:01:48.154Z,49.25
2018-12-11T08:02:48.213Z,49.2
2018-12-11T08:03:48.104Z,49.14
2018-12-11T08:04:48.190Z,49.22
2018-12-11T08:05:48.342Z,49.12
2018-12-11T08:06:48.206Z,49.29
2018-12-11T08:07:48.280Z,49.18
2018-12-11T08:08:48.203Z,49.19
2018-12-11T08:09:48.518Z,49.26
2018-12-11T08:10:48.413Z,49.14
2018-12-11T08:11:48.519Z,49.05
2018-12-11T08:12:48.219Z,49.15
2018-12-11T08:13:48.498Z,49.18
2018-12-11T08:14:48.250Z,49.2
2018-12-11T08:15:48.186Z,49.18
2018-12-11T08:16:48.416Z,49.21
2018-12-11T08:17:48.174Z,49.17
2018-12-11T08:18:48.567Z,49.16
2018-12-11T08:19:48.354Z,49.16
2018-12-11T08:20:48.790Z,49.09
2018-12-11T08:21:48.992Z,49.11
2018-12-11T08:22:48.134Z,49.09
2018-12-11T08:23:48.386Z,49.14
2018-12-11T08:24:48.332Z,49.11
2018-12-11T08:25:48.188Z,49.11
2018-12-11T08:26:48.719Z,49.1
2018-12-11T08:27:48.434Z,49.08
2018-12-11T08:28:48.395Z,49.12
2018-12-11T08:29:48.756Z,49.1
2018-12-11T08:30:48.332Z,49.14
2018-12-11T08:31:48.240Z,49.14
2018-12-11T08:32:48.453Z,49.19
2018-12-11T08:33:48.179Z,49.09
2018-12-11T08:34:48.674Z,49.16
2018-12-11T08:35:48.684Z,49.15
2018-12-11T08:36:48.424Z,49.11
2018-12-11T08:37:48.714Z,49.14
2018-12-11T08:38:48.184Z,49.1
2018-12-11T08:39:48.324Z,49.11
2018-12-11T08:40:48.998Z,49.1
2018-12-11T08:41:48.532Z,49.13
2018-12-11T08:42:48.641Z,49.11
2018-12-11T08:43:48.343Z,49.14
2018-12-11T08:44:51.793Z,49.1
2018-12-11T08:45:48.304Z,49.1
2018-12-11T08:46:48.575Z,49.09
2018-12-11T08:47:48.294Z,49.12
2018-12-11T08:48:48.060Z,49.11
2018-12-11T08:49:48.277Z,49.13
2018-12-11T08:50:48.139Z,49.12
2018-12-11T08:51:48.561Z,49.11
2018-12-11T08:52:48.385Z,49.17
2018-12-11T08:53:48.394Z,49.12
2018-12-11T08:54:48.090Z,49.12
2018-12-11T08:55:48.189Z,49.13
2018-12-11T08:56:48.321Z,49.11
2018-12-11T08:57:48.081Z,49.13
2018-12-11T08:58:48.387Z,49.09
2018-12-11T08:59:48.220Z,49.11
2018-12-11T09:00:48.564Z,49.11
2018-12-11T09:01:48.211Z,49.08
2018-12-11T09:02:48.581Z,49.11
2018-12-11T09:03:48.207Z,49.11
2018-12-11T09:04:48.204Z,49.11
2018-12-11T09:05:48.411Z,49.2
2018-12-11T09:06:48.947Z,49.13
2018-12-11T09:07:48.254Z,49.11
2018-12-11T09:08:49.026Z,49.07
2018-12-11T09:09:48.219Z,49.09
2018-12-11T09:10:48.086Z,49.09
2018-12-11T09:11:48.439Z,49.11
2018-12-11T09:12:48.338Z,49.15
2018-12-11T09:13:48.408Z,49.11
2018-12-11T09:14:48.717Z,49.05
2018-12-11T09:15:48.114Z,49.12
2018-12-11T09:16:48.228Z,49.12
2018-12-11T09:17:48.069Z,49.12
2018-12-11T09:18:48.226Z,49.12
2018-12-11T09:19:48.338Z,49.14
2018-12-11T09:20:48.240Z,49.12
2018-12-11T09:21:48.555Z,49.12
2018-12-11T09:22:48.317Z,49.09
2018-12-11T09:23:48.226Z,49.14
2018-12-11T09:24:48.174Z,49.11
2018-12-11T09:25:48.144Z,49.05
2018-12-11T09:26:48.547Z,49.07
2018-12-11T09:27:48.205Z,49.06
2018-12-11T09:28:48.439Z,49.06
2018-12-11T09:29:48.193Z,49.05
2018-12-11T09:30:48.237Z,49.09
2018-12-11T09:31:48.125Z,49.08
2018-12-11T09:32:48.154Z,49.08
2018-12-11T09:33:48.059Z,49.12
2018-12-11T09:34:48.143Z,49.12
2018-12-11T09:35:48.243Z,49.11
2018-12-11T09:36:48.176Z,49.07
2018-12-11T09:37:48.527Z,49.08
2018-12-11T09:38:48.158Z,49.1
2018-12-11T09:39:48.618Z,49.07
2018-12-11T09:40:48.313Z,49.12
2018-12-11T09:41:48.151Z,49.1
2018-12-11T09:42:48.848Z,49.12
2018-12-11T09:43:48.123Z,49.12
2018-12-11T09:44:48.257Z,49.1
2018-12-11T09:45:48.263Z,49.12
2018-12-11T09:46:48.243Z,49.14
2018-12-11T09:47:48.377Z,49.11
2018-12-11T09:48:48.199Z,49.07
2018-12-11T09:49:48.346Z,49.08
2018-12-11T09:50:48.397Z,49.06
2018-12-11T09:51:48.520Z,49.12
2018-12-11T09:52:48.435Z,49.05
2018-12-11T09:53:48.163Z,49.08
2018-12-11T09:54:48.326Z,49.06
2018-12-11T09:55:48.726Z,49.13
2018-12-11T09:56:48.612Z,49.08
2018-12-11T09:57:48.118Z,49.07
2018-12-11T09:58:48.289Z,49.12
2018-12-11T09:59:48.600Z,49.09
2018-12-11T10:00:48.144Z,49.09
2018-12-11T10:01:48.175Z,49.05
2018-12-11T10:02:48.428Z,49.05
2018-12-11T10:03:48.733Z,49.03
2018-12-11T10:04:48.229Z,49.06
2018-12-11T10:05:48.439Z,49.06
2018-12-11T10:06:48.625Z,49.06
2018-12-11T10:07:48.291Z,49.07
2018-12-11T10:08:48.065Z,49.06
2018-12-11T10:09:48.003Z,49.03
2018-12-11T10:10:48.064Z,49.09
2018-12-11T10:11:48.602Z,49.07
2018-12-11T10:12:48.408Z,49.09
2018-12-11T10:13:48.126Z,49.1
2018-12-11T10:14:48.311Z,49.07
2018-12-11T10:15:48.056Z,49.03
2018-12-11T10:16:48.432Z,49.06
2018-12-11T10:17:48.086Z,49.06
2018-12-11T10:18:48.183Z,49.03
2018-12-11T10:19:48.279Z,49.04
2018-12-11T10:20:49.345Z,49.06
2018-12-11T10:21:48.302Z,49.04
2018-12-11T10:22:48.292Z,49.03
2018-12-11T10:23:48.783Z,49.06
2018-12-11T10:24:48.574Z,49.04
2018-12-11T10:25:48.410Z,49.04
2018-12-11T10:26:48.520Z,49.04
2018-12-11T10:27:48.637Z,49.03
2018-12-11T10:28:48.198Z,49.05
2018-12-11T10:29:48.295Z,49.01
2018-12-11T10:30:48.341Z,48.98
2018-12-11T10:31:48.704Z,49.01
2018-12-11T10:32:48.205Z,49.03
2018-12-11T10:33:48.294Z,49.04
2018-12-11T10:34:48.246Z,49.07
2018-12-11T10:35:48.303Z,49.05
2018-12-11T10:36:49.760Z,49.04
2018-12-11T10:37:48.258Z,49.02
2018-12-11T10:38:49.173Z,48.97
2018-12-11T10:39:48.186Z,49.02
2018-12-11T10:40:48.332Z,49.03
2018-12-11T10:41:48.118Z,49.03
2018-12-11T10:42:48.642Z,49.03
2018-12-11T10:43:48.049Z,49.04
2018-12-11T10:44:48.198Z,49
2018-12-11T10:45:48.414Z,49.07
2018-12-11T10:46:48.463Z,49
2018-12-11T10:47:48.564Z,49.02
2018-12-11T10:48:48.272Z,48.99
2018-12-11T10:49:48.299Z,49.05
2018-12-11T10:50:48.107Z,49.05
2018-12-11T10:51:48.610Z,48.96
2018-12-11T10:52:48.696Z,49.03
2018-12-11T10:53:48.485Z,49.03
2018-12-11T10:54:48.047Z,49
2018-12-11T10:55:48.703Z,49.07
2018-12-11T10:56:48.191Z,49.03
2018-12-11T10:57:48.333Z,49.01
2018-12-11T10:58:48.474Z,49.04
2018-12-11T10:59:48.243Z,49.03
2018-12-11T11:00:48.898Z,48.99
2018-12-11T11:01:48.528Z,49.01
2018-12-11T11:02:48.354Z,49.02
2018-12-11T11:03:48.317Z,49.03
2018-12-11T11:04:48.017Z,48.97
2018-12-11T11:05:49.131Z,48.99
2018-12-11T11:06:48.046Z,49.03
2018-12-11T11:07:48.116Z,49.01
2018-12-11T11:08:48.260Z,48.98
2018-12-11T11:09:48.446Z,49
2018-12-11T11:10:48.198Z,49
2018-12-11T11:11:48.075Z,49.03
2018-12-11T11:12:48.369Z,48.97
2018-12-11T11:13:48.141Z,49.01
2018-12-11T11:14:48.327Z,48.96
2018-12-11T11:15:48.834Z,49.02
2018-12-11T11:16:48.159Z,49.04
2018-12-11T11:17:48.285Z,49
2018-12-11T11:18:48.143Z,48.99
2018-12-11T11:19:48.303Z,49.03
2018-12-11T11:20:48.165Z,48.98
2018-12-11T11:21:48.208Z,48.97
2018-12-11T11:22:48.218Z,49.01
2018-12-11T11:23:48.107Z,49
2018-12-11T11:24:48.198Z,49.01
2018-12-11T11:25:48.138Z,48.96
2018-12-11T11:26:48.633Z,49.01
2018-12-11T11:27:48.241Z,48.99
2018-12-11T11:28:48.546Z,49.02
2018-12-11T11:29:47.995Z,49.03
2018-12-11T11:30:48.052Z,49.02
2018-12-11T11:31:48.544Z,48.98
2018-12-11T11:32:48.392Z,49.02
2018-12-11T11:33:48.236Z,48.99
2018-12-11T11:34:48.158Z,48.98
2018-12-11T11:35:48.192Z,49
2018-12-11T11:36:48.129Z,49
2018-12-11T11:37:48.588Z,49.01
2018-12-11T11:38:48.048Z,49
2018-12-11T11:39:48.152Z,49.02
2018-12-11T11:40:48.273Z,48.99
2018-12-11T11:41:48.176Z,49.01
2018-12-11T11:42:48.357Z,49.01
2018-12-11T11:43:48.974Z,49.07
2018-12-11T11:44:48.380Z,49.07
2018-12-11T11:45:48.446Z,49.07
2018-12-11T11:46:48.761Z,49.01
2018-12-11T11:47:48.351Z,49.07
2018-12-11T11:48:48.387Z,49.04
2018-12-11T11:49:48.785Z,49.02
2018-12-11T11:50:48.137Z,49.07
2018-12-11T11:51:48.196Z,49.02
2018-12-11T11:52:48.211Z,49.05
2018-12-11T11:53:48.433Z,49.05
2018-12-11T11:54:48.812Z,49.01
2018-12-11T11:55:48.617Z,49
2018-12-11T11:56:49.087Z,49.07
2018-12-11T11:57:48.776Z,49.04
2018-12-11T11:58:48.163Z,49.02
2018-12-11T11:59:48.119Z,49.04
2018-12-11T12:00:48.141Z,49.05
2018-12-11T12:01:48.442Z,49.04
2018-12-11T12:02:48.231Z,49.03
2018-12-11T12:03:48.506Z,49.01
2018-12-11T12:04:48.018Z,49.03
2018-12-11T12:05:48.513Z,49.03
2018-12-11T12:06:48.315Z,49.02
2018-12-11T12:07:48.111Z,49.02
2018-12-11T12:08:48.093Z,49.04
2018-12-11T12:09:48.084Z,49.01
2018-12-11T12:10:48.277Z,49.03
2018-12-11T12:11:48.123Z,49.03
2018-12-11T12:12:48.273Z,49.07
2018-12-11T12:13:48.248Z,49.07
2018-12-11T12:14:49.395Z,49.07
2018-12-11T12:15:48.422Z,49.07
2018-12-11T12:16:48.065Z,49.08
2018-12-11T12:17:48.243Z,49.06
2018-12-11T12:18:48.029Z,49.06
2018-12-11T12:19:48.127Z,49.1
2018-12-11T12:20:48.462Z,49.11
2018-12-11T12:21:48.112Z,49.08
2018-12-11T12:22:48.409Z,49.09
2018-12-11T12:23:48.404Z,49.05
2018-12-11T12:24:48.320Z,49.04
2018-12-11T12:25:48.079Z,49.07
2018-12-11T12:26:48.436Z,49.05
2018-12-11T12:27:48.302Z,49.03
2018-12-11T12:28:48.054Z,49.07
2018-12-11T12:29:48.096Z,49.03
2018-12-11T12:30:48.447Z,49.06
2018-12-11T12:31:48.232Z,49.03
2018-12-11T12:32:48.045Z,49.04
2018-12-11T12:33:48.618Z,49.03
2018-12-11T12:34:48.181Z,49.05
2018-12-11T12:35:48.097Z,49.08
2018-12-11T12:36:49.137Z,49.08
2018-12-11T12:37:48.040Z,49.05
2018-12-11T12:38:48.016Z,49.03
2018-12-11T12:39:48.038Z,49.05
2018-12-11T12:40:50.934Z,49.06
2018-12-11T12:41:48.131Z,49.05
2018-12-11T12:42:48.322Z,49.04
2018-12-11T12:43:48.517Z,49.05
2018-12-11T12:44:48.160Z,49.05
2018-12-11T12:45:48.280Z,49.09
2018-12-11T12:46:48.181Z,49.09
2018-12-11T12:47:48.914Z,49.09
2018-12-11T12:48:48.106Z,49.05
2018-12-11T12:49:51.263Z,49.1
2018-12-11T12:50:48.982Z,49.06
2018-12-11T12:51:48.108Z,49.06
2018-12-11T12:52:48.129Z,49.1
2018-12-11T12:53:48.439Z,49.06
2018-12-11T12:54:49.434Z,49.09
2018-12-11T12:55:48.498Z,49.12
2018-12-11T12:56:48.190Z,49.09
2018-12-11T12:57:48.269Z,49.1
2018-12-11T12:58:48.569Z,49.11
2018-12-11T12:59:48.276Z,49.11